createdAt,value
2023-04-18T00:00:33.830Z,21.08
2023-04-18T00:03:03.892Z,19.30
2023-04-18T00:05:32.212Z,22.70
2023-04-18T00:08:01.184Z,20.00
2023-04-18T00:10:28.865Z,20.23
2023-04-18T00:12:58.033Z,20.50
2023-04-18T00:15:25.823Z,22.13
2023-04-18T00:17:56.516Z,22.52
2023-04-18T00:20:26.607Z,20.98
2023-04-18T00:22:54.972Z,21.75
2023-04-18T00:25:23.965Z,22.05
2023-04-18T00:27:51.573Z,21.42
2023-04-18T00:30:19.231Z,21.45
2023-04-18T00:32:46.860Z,20.08
2023-04-18T00:35:14.520Z,24.83
2023-04-18T00:37:42.191Z,23.35
2023-04-18T00:40:10.881Z,23.67
2023-04-18T00:42:39.853Z,23.08
2023-04-18T00:45:08.254Z,21.05
2023-04-18T00:47:36.182Z,23.60
2023-04-18T00:50:04.380Z,23.48
2023-04-18T00:52:33.759Z,23.50
2023-04-18T00:55:01.399Z,21.25
2023-04-18T00:57:29.015Z,25.60
2023-04-18T00:59:58.124Z,23.85
2023-04-18T01:02:26.481Z,24.95
2023-04-18T01:04:54.277Z,25.45
2023-04-18T01:07:21.873Z,24.15
2023-04-18T01:09:49.564Z,25.60
2023-04-18T01:12:17.133Z,22.63
2023-04-18T01:14:44.752Z,26.75
2023-04-18T01:17:13.693Z,23.83
2023-04-18T01:19:41.514Z,27.20
2023-04-18T01:22:09.820Z,27.70
2023-04-18T01:24:39.207Z,25.90
2023-04-18T01:27:06.868Z,30.80
2023-04-18T01:29:34.483Z,26.92
2023-04-18T01:32:02.635Z,27.20
2023-04-18T01:34:30.251Z,28.45
2023-04-18T01:36:57.890Z,26.83
2023-04-18T01:39:25.541Z,22.15
2023-04-18T01:41:54.511Z,23.88
2023-04-18T01:44:22.089Z,26.60
2023-04-18T01:46:49.803Z,27.00
2023-04-18T01:49:17.549Z,27.83
2023-04-18T01:51:45.104Z,25.13
2023-04-18T01:54:12.888Z,25.17
2023-04-18T01:56:40.621Z,26.52
2023-04-18T01:59:09.561Z,28.05
2023-04-18T02:01:37.148Z,28.13
2023-04-18T02:04:04.790Z,28.08
2023-04-18T02:06:32.433Z,29.35
2023-04-18T02:09:00.066Z,30.65
2023-04-18T02:11:27.674Z,29.65
2023-04-18T02:13:55.284Z,28.63
2023-04-18T02:16:24.316Z,30.40
2023-04-18T02:18:52.879Z,33.50
2023-04-18T02:21:21.771Z,29.65
2023-04-18T02:23:49.644Z,33.78
2023-04-18T02:26:17.276Z,37.67
2023-04-18T02:28:44.994Z,30.10
2023-04-18T02:31:14.905Z,35.15
2023-04-18T02:33:44.383Z,32.42
2023-04-18T02:36:13.554Z,33.22
2023-04-18T02:38:41.213Z,36.22
2023-04-18T02:41:08.915Z,36.95
2023-04-18T02:43:36.591Z,34.60
2023-04-18T02:46:04.346Z,37.70
2023-04-18T02:48:32.113Z,36.42
2023-04-18T02:51:04.626Z,33.13
2023-04-18T02:53:32.346Z,38.65
2023-04-18T02:56:00.451Z,38.92
2023-04-18T02:58:28.589Z,37.10
2023-04-18T03:00:57.564Z,40.25
2023-04-18T03:03:25.295Z,38.30
2023-04-18T03:05:53.031Z,42.05
2023-04-18T03:08:22.041Z,38.00
2023-04-18T03:10:49.673Z,36.63
2023-04-18T03:13:17.532Z,40.95
2023-04-18T03:15:45.241Z,36.53
2023-04-18T03:18:13.196Z,42.47
2023-04-18T03:20:41.009Z,40.67
2023-04-18T03:23:08.680Z,38.53
2023-04-18T03:25:37.820Z,40.38
2023-04-18T03:28:05.858Z,43.70
2023-04-18T03:30:33.605Z,38.95
2023-04-18T03:33:02.814Z,38.50
2023-04-18T03:35:30.695Z,42.53
2023-04-18T03:37:58.357Z,41.70
2023-04-18T03:40:26.003Z,37.10
2023-04-18T03:42:55.009Z,41.58
2023-04-18T03:45:22.674Z,39.30
2023-04-18T03:47:50.362Z,38.85
2023-04-18T03:50:18.093Z,40.45
2023-04-18T03:52:45.868Z,38.28
2023-04-18T03:55:13.638Z,44.35
2023-04-18T03:57:41.404Z,48.45
2023-04-18T04:00:12.645Z,44.88
2023-04-18T04:02:40.940Z,45.60
2023-04-18T04:05:09.170Z,46.88
2023-04-18T04:07:37.068Z,47.08
2023-04-18T04:10:05.137Z,42.03
2023-04-18T04:12:32.754Z,45.10
2023-04-18T04:15:00.881Z,51.88
2023-04-18T04:17:29.942Z,42.92
2023-04-18T04:19:57.581Z,46.67
2023-04-18T04:22:25.733Z,47.83
2023-04-18T04:24:53.372Z,53.97
2023-04-18T04:27:21.015Z,47.47
2023-04-18T04:29:49.703Z,45.13
2023-04-18T04:32:17.909Z,49.85
2023-04-18T04:34:47.399Z,46.97
2023-04-18T04:37:15.262Z,47.60
2023-04-18T04:39:42.882Z,47.80
2023-04-18T04:42:12.216Z,50.75
2023-04-18T04:44:41.609Z,50.70
2023-04-18T04:47:15.495Z,49.80
2023-04-18T04:49:43.148Z,50.95
2023-04-18T04:52:12.151Z,53.00
2023-04-18T04:54:40.025Z,52.90
2023-04-18T04:57:07.725Z,49.38
2023-04-18T04:59:35.550Z,50.33
2023-04-18T05:02:03.393Z,57.20
2023-04-18T05:04:31.262Z,50.95
2023-04-18T05:06:58.983Z,53.25
2023-04-18T05:09:28.030Z,55.10
2023-04-18T05:11:55.699Z,55.75
2023-04-18T05:14:23.902Z,50.35
2023-04-18T05:16:51.654Z,56.30
2023-04-18T05:19:19.327Z,55.03
2023-04-18T05:21:46.964Z,55.65
2023-04-18T05:24:14.798Z,52.35
2023-04-18T05:26:44.264Z,53.33
2023-04-18T05:29:11.912Z,55.72
2023-04-18T05:31:39.537Z,55.97
2023-04-18T05:34:07.204Z,57.63
2023-04-18T05:36:34.822Z,50.33
2023-04-18T05:39:02.471Z,49.97
2023-04-18T05:41:30.111Z,53.45
2023-04-18T05:44:05.426Z,57.05
2023-04-18T05:46:33.729Z,60.10
2023-04-18T05:49:01.525Z,58.38
2023-04-18T05:51:29.440Z,56.83
2023-04-18T05:53:57.086Z,57.15
2023-04-18T05:56:24.732Z,52.50
2023-04-18T05:58:52.417Z,54.30
2023-04-18T06:01:21.507Z,55.30
2023-04-18T06:03:49.457Z,51.10
2023-04-18T06:06:17.351Z,61.95
2023-04-18T06:08:44.988Z,58.97
2023-04-18T06:11:14.922Z,57.40
2023-04-18T06:13:42.655Z,54.83
2023-04-18T06:16:10.358Z,55.67
2023-04-18T06:18:39.511Z,55.90
2023-04-18T06:21:07.344Z,56.47
2023-04-18T06:23:35.010Z,53.97
2023-04-18T06:26:02.774Z,55.08
2023-04-18T06:28:30.399Z,55.10
2023-04-18T06:30:58.065Z,52.30
2023-04-18T06:33:25.825Z,50.03
2023-04-18T06:35:54.859Z,57.53
2023-04-18T06:38:22.537Z,54.50
2023-04-18T06:40:50.204Z,55.60
2023-04-18T06:43:17.830Z,49.15
2023-04-18T06:45:45.503Z,45.38
2023-04-18T06:48:13.227Z,55.28
2023-04-18T06:50:40.931Z,56.03
2023-04-18T06:53:09.950Z,50.03
2023-04-18T06:55:37.675Z,50.70
2023-04-18T06:58:05.820Z,48.63
2023-04-18T07:00:33.455Z,54.88
2023-04-18T07:03:02.038Z,51.88
2023-04-18T07:05:29.851Z,49.47
2023-04-18T07:07:57.529Z,47.50
2023-04-18T07:10:26.636Z,46.00
2023-04-18T07:12:54.310Z,46.08
2023-04-18T07:15:22.406Z,53.50
2023-04-18T07:17:50.158Z,51.20
2023-04-18T07:20:17.859Z,46.22
2023-04-18T07:22:45.966Z,50.95
2023-04-18T07:25:13.619Z,46.92
2023-04-18T07:27:42.699Z,45.25
2023-04-18T07:30:11.227Z,45.03
2023-04-18T07:32:39.180Z,46.97
2023-04-18T07:35:07.783Z,39.97
2023-04-18T07:37:35.450Z,45.13
2023-04-18T07:40:04.106Z,39.85
2023-04-18T07:42:31.804Z,39.20
2023-04-18T07:45:00.797Z,41.75
2023-04-18T07:47:30.607Z,39.63
2023-04-18T07:49:59.255Z,44.25
2023-04-18T07:52:27.019Z,43.15
2023-04-18T07:54:54.622Z,45.60
2023-04-18T07:57:22.266Z,39.75
2023-04-18T07:59:53.676Z,42.50
2023-04-18T08:02:22.881Z,38.70
2023-04-18T08:04:52.046Z,38.95
2023-04-18T08:07:20.034Z,38.72
2023-04-18T08:09:48.217Z,36.70
2023-04-18T08:12:15.894Z,36.22
2023-04-18T08:14:43.516Z,41.25
2023-04-18T08:17:11.146Z,38.42
2023-04-18T08:19:40.253Z,40.92
2023-04-18T08:22:10.017Z,42.47
2023-04-18T08:24:38.867Z,34.92
2023-04-18T08:27:06.644Z,35.50
2023-04-18T08:29:34.500Z,34.97
2023-04-18T08:32:02.328Z,34.88
2023-04-18T08:34:30.044Z,33.28
2023-04-18T08:36:59.033Z,34.67
2023-04-18T08:39:26.732Z,37.20
2023-04-18T08:41:58.913Z,32.92
2023-04-18T08:46:54.679Z,30.17
2023-04-18T08:49:22.794Z,31.13
2023-04-18T08:51:51.883Z,27.75
2023-04-18T08:54:22.404Z,28.98
2023-04-18T08:57:04.768Z,29.15
2023-04-18T09:02:01.561Z,25.83
2023-04-18T09:04:35.169Z,28.00
2023-04-18T09:07:03.467Z,27.70
2023-04-18T09:09:43.249Z,25.60
2023-04-18T09:12:14.424Z,24.58
2023-04-18T09:14:45.752Z,29.10
2023-04-18T09:17:14.541Z,23.20
2023-04-18T09:19:48.757Z,24.38
2023-04-18T09:22:17.020Z,29.67
2023-04-18T09:24:54.206Z,22.63
2023-04-18T09:27:23.853Z,23.75
2023-04-18T09:29:52.694Z,24.10
2023-04-18T09:32:25.027Z,22.88
2023-04-18T09:34:57.980Z,24.60
2023-04-18T09:37:26.624Z,22.30
2023-04-18T09:39:56.113Z,23.88
2023-04-18T09:42:25.059Z,24.92
2023-04-18T09:45:03.652Z,24.45
2023-04-18T09:47:32.277Z,25.85
2023-04-18T09:49:59.924Z,26.70
2023-04-18T09:52:27.618Z,27.17
2023-04-18T09:55:01.056Z,23.80
2023-04-18T09:57:30.156Z,26.30
2023-04-18T10:00:03.034Z,29.90
2023-04-18T10:02:35.830Z,26.98
2023-04-18T10:05:05.902Z,26.60
2023-04-18T10:07:33.886Z,30.33
2023-04-18T10:10:02.872Z,28.73
2023-04-18T10:12:30.589Z,26.88
2023-04-18T10:14:58.307Z,38.03
2023-04-18T10:17:29.420Z,26.38
2023-04-18T10:20:10.279Z,25.52
2023-04-18T10:22:37.928Z,23.48
2023-04-18T10:25:08.152Z,22.73
2023-04-18T10:27:59.883Z,27.70
2023-04-18T10:30:56.320Z,22.58
2023-04-18T10:33:34.651Z,23.30
2023-04-18T10:36:14.851Z,23.95
2023-04-18T10:38:46.975Z,21.70
2023-04-18T10:44:18.234Z,21.13
2023-04-18T10:47:32.224Z,23.13
2023-04-18T10:50:06.965Z,21.10
2023-04-18T10:52:35.809Z,22.30
2023-04-18T10:55:24.496Z,22.13
2023-04-18T10:57:56.114Z,22.73
2023-04-18T11:00:24.657Z,23.67
2023-04-18T11:02:55.912Z,24.40
2023-04-18T11:05:25.842Z,24.30
2023-04-18T11:07:53.997Z,20.95
2023-04-18T11:10:23.799Z,24.17
2023-04-18T11:12:53.680Z,20.90
2023-04-18T11:15:23.340Z,22.83
2023-04-18T11:17:58.820Z,20.60
2023-04-18T11:20:26.852Z,19.85
2023-04-18T11:22:55.659Z,22.88
2023-04-18T11:25:26.055Z,20.25
2023-04-18T11:27:55.884Z,20.25
2023-04-18T11:30:23.608Z,19.17
2023-04-18T11:32:51.690Z,24.45
2023-04-18T11:35:19.517Z,19.77
2023-04-18T11:37:47.225Z,22.00
2023-04-18T11:40:15.398Z,21.35
2023-04-18T11:42:43.369Z,22.90
2023-04-18T11:45:13.729Z,21.98
2023-04-18T11:47:43.063Z,24.23
2023-04-18T11:50:11.972Z,20.23
2023-04-18T11:52:41.562Z,20.23
2023-04-18T11:55:14.542Z,21.63
2023-04-18T11:57:42.542Z,21.63
2023-04-18T12:00:13.498Z,20.02
2023-04-18T12:02:43.578Z,24.70
2023-04-18T12:05:12.157Z,20.73
2023-04-18T12:07:41.291Z,20.58
2023-04-18T12:10:10.799Z,21.80
2023-04-18T12:12:38.508Z,22.77
2023-04-18T12:15:08.401Z,23.48
2023-04-18T12:17:39.036Z,21.05
2023-04-18T12:20:09.937Z,22.55
2023-04-18T12:22:42.976Z,19.52
2023-04-18T12:25:23.547Z,19.50
2023-04-18T12:27:55.014Z,20.27
2023-04-18T12:30:23.973Z,18.90
2023-04-18T12:32:54.205Z,17.95
2023-04-18T12:35:22.496Z,19.83
2023-04-18T12:37:51.352Z,18.83
2023-04-18T12:40:19.915Z,17.50
2023-04-18T12:42:48.236Z,18.35
2023-04-18T12:45:16.656Z,18.60
2023-04-18T12:47:45.904Z,17.75
2023-04-18T12:50:18.892Z,18.25
2023-04-18T12:52:47.314Z,17.55
2023-04-18T12:55:15.602Z,16.35
2023-04-18T12:57:43.866Z,17.15
2023-04-18T13:00:13.558Z,18.58
2023-04-18T13:02:42.991Z,17.05
2023-04-18T13:05:12.170Z,17.42
2023-04-18T13:07:42.430Z,17.75
2023-04-18T13:10:11.940Z,17.02
2023-04-18T13:12:40.179Z,17.15
2023-04-18T13:15:08.768Z,16.17
2023-04-18T13:17:37.290Z,15.95
2023-04-18T13:20:06.524Z,16.13
2023-04-18T13:22:34.524Z,15.55
2023-04-18T13:25:03.997Z,19.02
2023-04-18T13:27:31.649Z,15.88
2023-04-18T13:29:59.360Z,16.73
2023-04-18T13:32:27.396Z,16.63
2023-04-18T13:34:56.131Z,17.95
2023-04-18T13:37:24.042Z,16.05
2023-04-18T13:39:51.744Z,17.73
2023-04-18T13:42:21.094Z,16.42
2023-04-18T13:44:49.519Z,17.27
2023-04-18T13:47:17.511Z,17.05
2023-04-18T13:49:45.181Z,16.55
2023-04-18T13:52:12.864Z,16.20
2023-04-18T13:54:41.365Z,16.58
2023-04-18T13:57:11.663Z,15.40
2023-04-18T13:59:40.960Z,18.40
2023-04-18T14:02:09.224Z,16.83
2023-04-18T14:04:37.460Z,17.33
2023-04-18T14:07:06.207Z,16.55
2023-04-18T14:09:34.232Z,17.25
2023-04-18T14:12:02.022Z,17.02
2023-04-18T14:14:29.752Z,20.38
2023-04-18T14:16:58.801Z,17.15
2023-04-18T14:19:27.537Z,17.83
2023-04-18T14:21:55.207Z,18.00
2023-04-18T14:24:22.854Z,16.63
2023-04-18T14:26:50.517Z,16.88
2023-04-18T14:29:18.163Z,17.48
2023-04-18T14:31:46.086Z,16.70
2023-04-18T14:34:15.377Z,17.23
2023-04-18T14:36:43.023Z,16.42
2023-04-18T14:39:11.065Z,16.40
2023-04-18T14:41:38.900Z,17.25
2023-04-18T14:44:06.575Z,15.93
2023-04-18T14:46:34.321Z,15.73
2023-04-18T14:49:01.989Z,16.55
2023-04-18T14:51:31.211Z,23.70
2023-04-18T14:53:58.846Z,17.58
2023-04-18T14:56:26.552Z,16.38
2023-04-18T14:58:54.180Z,15.75
2023-04-18T15:01:21.970Z,17.35
2023-04-18T15:03:51.391Z,14.85
2023-04-18T15:06:19.238Z,14.35
2023-04-18T15:08:48.285Z,15.73
2023-04-18T15:11:15.950Z,15.85
2023-04-18T15:13:44.488Z,17.10
2023-04-18T15:16:12.533Z,15.90
2023-04-18T15:18:40.211Z,15.15
2023-04-18T15:21:07.780Z,15.48
2023-04-18T15:23:35.557Z,16.55
2023-04-18T15:26:04.644Z,17.80
2023-04-18T15:28:32.343Z,16.02
2023-04-18T15:31:00.009Z,15.80
2023-04-18T15:33:28.246Z,16.13
2023-04-18T15:35:56.535Z,16.05
2023-04-18T15:38:24.199Z,15.82
2023-04-18T15:40:51.853Z,15.93
2023-04-18T15:43:20.994Z,14.80
2023-04-18T15:45:48.956Z,15.13
2023-04-18T15:48:16.595Z,14.88
2023-04-18T15:50:44.231Z,14.40
2023-04-18T15:53:11.905Z,14.63
2023-04-18T15:55:39.683Z,17.23
2023-04-18T15:58:07.603Z,16.73
2023-04-18T16:00:36.605Z,16.70
2023-04-18T16:03:04.757Z,17.60
2023-04-18T16:05:32.561Z,21.08
2023-04-18T16:08:01.239Z,18.48
2023-04-18T16:10:28.966Z,21.92
2023-04-18T16:12:56.609Z,20.15
2023-04-18T16:15:24.269Z,19.05
2023-04-18T16:17:53.382Z,20.27
2023-04-18T16:20:21.281Z,19.25
2023-04-18T16:22:49.140Z,20.15
2023-04-18T16:25:16.755Z,22.05
2023-04-18T16:27:44.687Z,21.75
2023-04-18T16:30:13.265Z,18.63
2023-04-18T16:32:40.997Z,18.52
2023-04-18T16:35:11.142Z,18.92
2023-04-18T16:37:38.979Z,18.40
2023-04-18T16:40:09.794Z,18.30
2023-04-18T16:42:37.831Z,18.83
2023-04-18T16:45:06.165Z,21.30
2023-04-18T16:47:34.330Z,19.77
2023-04-18T16:50:02.027Z,17.50
2023-04-18T16:52:31.881Z,18.65
2023-04-18T16:54:59.542Z,17.30
2023-04-18T16:57:27.225Z,18.13
2023-04-18T16:59:54.886Z,17.60
2023-04-18T17:02:22.752Z,17.38
2023-04-18T17:04:51.346Z,17.98
2023-04-18T17:07:19.459Z,19.08
2023-04-18T17:09:51.157Z,19.13
2023-04-18T17:12:19.031Z,17.38
2023-04-18T17:14:46.688Z,21.63
2023-04-18T17:17:14.334Z,18.42
2023-04-18T17:19:41.987Z,17.42
2023-04-18T17:22:09.730Z,16.52
2023-04-18T17:24:37.525Z,17.15
2023-04-18T17:27:06.638Z,18.17
2023-04-18T17:29:34.409Z,15.27
2023-04-18T17:32:02.212Z,15.43
2023-04-18T17:34:29.903Z,17.00
2023-04-18T17:36:57.625Z,16.60
2023-04-18T17:39:25.271Z,17.15
2023-04-18T17:41:53.311Z,18.83
2023-04-18T17:44:22.305Z,17.38
2023-04-18T17:46:50.678Z,16.65
2023-04-18T17:49:18.398Z,16.75
2023-04-18T17:51:46.072Z,16.98
2023-04-18T17:54:14.023Z,16.75
2023-04-18T17:56:41.768Z,17.50
2023-04-18T17:59:09.859Z,16.85
2023-04-18T18:01:39.040Z,16.85
2023-04-18T18:04:06.898Z,15.57
2023-04-18T18:06:34.675Z,17.92
2023-04-18T18:09:02.333Z,14.55
2023-04-18T18:11:29.968Z,17.17
2023-04-18T18:13:57.629Z,16.13
2023-04-18T18:16:25.334Z,16.60
2023-04-18T18:18:54.647Z,15.88
2023-04-18T18:21:22.360Z,16.73
2023-04-18T18:23:50.055Z,15.77
2023-04-18T18:26:17.688Z,16.17
2023-04-18T18:28:45.314Z,15.95
2023-04-18T18:31:12.941Z,16.10
2023-04-18T18:33:40.638Z,15.68
2023-04-18T18:36:09.644Z,15.35
2023-04-18T18:38:37.489Z,15.80
2023-04-18T18:41:05.648Z,16.35
2023-04-18T18:43:33.304Z,17.75
2023-04-18T18:46:01.081Z,15.30
2023-04-18T18:48:29.120Z,15.65
2023-04-18T18:50:57.274Z,15.90
2023-04-18T18:53:26.366Z,15.80
2023-04-18T18:55:54.003Z,16.13
2023-04-18T18:58:21.723Z,16.40
2023-04-18T19:00:51.093Z,16.17
2023-04-18T19:03:21.055Z,17.23
2023-04-18T19:05:48.883Z,20.58
2023-04-18T19:08:16.506Z,16.17
2023-04-18T19:10:45.489Z,17.67
2023-04-18T19:13:13.212Z,22.38
2023-04-18T19:15:41.232Z,25.00
2023-04-18T19:18:09.015Z,18.80
2023-04-18T19:20:38.794Z,19.73
2023-04-18T19:23:06.419Z,18.20
2023-04-18T19:25:34.172Z,16.50
2023-04-18T19:28:04.849Z,17.10
2023-04-18T19:30:32.534Z,16.85
2023-04-18T19:33:00.288Z,16.77
2023-04-18T19:35:28.433Z,18.08
2023-04-18T19:38:01.421Z,17.25
2023-04-18T19:40:29.092Z,22.77
2023-04-18T19:42:56.769Z,18.27
2023-04-18T19:45:25.964Z,17.80
2023-04-18T19:47:53.642Z,17.35
2023-04-18T19:50:21.383Z,18.13
2023-04-18T19:52:49.012Z,17.70
2023-04-18T19:55:16.746Z,17.83
2023-04-18T19:57:44.409Z,18.80
2023-04-18T20:00:13.902Z,17.88
2023-04-18T20:02:43.172Z,21.45
2023-04-18T20:05:11.416Z,19.15
2023-04-18T20:07:39.461Z,19.92
2023-04-18T20:10:08.878Z,19.25
2023-04-18T20:12:36.586Z,21.65
2023-04-18T20:15:05.281Z,18.80
2023-04-18T20:17:34.678Z,17.92
2023-04-18T20:20:04.578Z,19.00
2023-04-18T20:22:34.175Z,18.88
2023-04-18T20:25:01.861Z,20.13
2023-04-18T20:27:29.562Z,20.65
2023-04-18T20:29:57.526Z,19.20
2023-04-18T20:32:25.349Z,19.05
2023-04-18T20:34:53.549Z,19.77
2023-04-18T20:37:22.661Z,20.50
2023-04-18T20:39:50.321Z,17.98
2023-04-18T20:42:18.631Z,21.38
2023-04-18T20:44:46.691Z,20.80
2023-04-18T20:47:15.761Z,20.63
2023-04-18T20:49:43.671Z,22.13
2023-04-18T20:52:11.336Z,22.30
2023-04-18T20:54:41.470Z,19.27
2023-04-18T20:57:09.320Z,21.80
2023-04-18T20:59:36.973Z,21.10
2023-04-18T21:02:04.823Z,19.77
2023-04-18T21:04:32.652Z,21.52
2023-04-18T21:07:00.547Z,22.25
2023-04-18T21:09:28.288Z,23.45
2023-04-18T21:11:58.414Z,21.77
2023-04-18T21:14:28.873Z,19.75
2023-04-18T21:16:57.097Z,21.60
2023-04-18T21:19:25.300Z,24.02
2023-04-18T21:21:52.980Z,22.10
2023-04-18T21:24:20.587Z,22.08
2023-04-18T21:26:48.257Z,23.10
2023-04-18T21:29:17.273Z,19.75
2023-04-18T21:31:45.248Z,21.10
2023-04-18T21:34:13.010Z,23.17
2023-04-18T21:36:41.034Z,24.27
2023-04-18T21:39:09.860Z,24.80
2023-04-18T21:41:37.563Z,25.40
2023-04-18T21:44:05.316Z,25.63
2023-04-18T21:46:34.370Z,25.92
2023-04-18T21:49:02.026Z,26.55
2023-04-18T21:51:29.717Z,27.33
2023-04-18T21:53:57.395Z,26.15
2023-04-18T21:56:25.052Z,30.95
2023-04-18T21:58:52.659Z,25.58
2023-04-18T22:01:20.329Z,25.40
2023-04-18T22:03:49.761Z,27.67
2023-04-18T22:06:17.518Z,25.15
2023-04-18T22:08:45.195Z,25.58
2023-04-18T22:11:13.573Z,27.52
2023-04-18T22:13:44.574Z,30.58
2023-04-18T22:16:12.655Z,30.98
2023-04-18T22:18:40.317Z,27.73
2023-04-18T22:21:10.449Z,30.52
2023-04-18T22:23:38.119Z,29.33
2023-04-18T22:26:05.840Z,25.40
2023-04-18T22:28:33.938Z,27.98
2023-04-18T22:31:01.685Z,26.77
2023-04-18T22:33:29.597Z,28.20
2023-04-18T22:35:57.343Z,27.02
2023-04-18T22:38:27.260Z,28.40
2023-04-18T22:40:54.923Z,32.72
2023-04-18T22:43:24.325Z,28.30
2023-04-18T22:45:52.416Z,26.60
2023-04-18T22:48:20.126Z,27.83
2023-04-18T22:50:47.794Z,29.35
2023-04-18T22:53:15.947Z,28.55
2023-04-18T22:55:45.805Z,27.52
2023-04-18T22:58:14.220Z,28.90
2023-04-18T23:00:41.865Z,26.75
2023-04-18T23:03:09.575Z,33.33
2023-04-18T23:05:37.354Z,28.25
2023-04-18T23:08:06.844Z,29.27
2023-04-18T23:10:34.910Z,27.60
2023-04-18T23:13:03.924Z,32.03
2023-04-18T23:15:31.577Z,26.77
2023-04-18T23:17:59.319Z,27.23
2023-04-18T23:20:27.054Z,28.08
2023-04-18T23:22:55.875Z,26.30
2023-04-18T23:25:23.509Z,31.30
2023-04-18T23:27:51.133Z,26.30
2023-04-18T23:30:20.247Z,32.60
2023-04-18T23:32:47.957Z,29.75
2023-04-18T23:35:15.667Z,28.20
2023-04-18T23:37:43.604Z,24.13
2023-04-18T23:40:11.349Z,29.25
2023-04-18T23:42:39.002Z,28.13
2023-04-18T23:45:07.436Z,28.25
2023-04-18T23:47:36.483Z,28.73
2023-04-18T23:50:04.345Z,26.25
2023-04-18T23:52:32.016Z,30.60
2023-04-18T23:55:00.575Z,28.17
2023-04-18T23:57:28.351Z,26.42
2023-04-18T23:59:56.007Z,29.38
